createdAt,value
2023-02-28T00:00:15.907Z,18.52
2023-02-28T00:03:01.963Z,18.19
2023-02-28T00:05:48.063Z,18.25
2023-02-28T00:08:34.143Z,19.41
2023-02-28T00:11:20.001Z,19.25
2023-02-28T00:14:05.885Z,18.70
2023-02-28T00:16:53.880Z,18.28
2023-02-28T00:19:39.754Z,19.85
2023-02-28T00:22:25.882Z,18.38
2023-02-28T00:25:11.626Z,18.03
2023-02-28T00:27:57.558Z,19.22
2023-02-28T00:30:43.564Z,19.34
2023-02-28T00:33:29.514Z,19.51
2023-02-28T00:36:15.353Z,19.82
2023-02-28T00:39:01.243Z,19.67
2023-02-28T00:41:47.060Z,19.33
2023-02-28T00:44:32.810Z,19.39
2023-02-28T00:47:18.747Z,19.57
2023-02-28T00:50:04.858Z,19.59
2023-02-28T00:52:50.741Z,19.46
2023-02-28T00:55:36.714Z,19.15
2023-02-28T00:58:22.594Z,19.30
2023-02-28T01:01:08.653Z,19.59
2023-02-28T01:03:56.618Z,19.42
2023-02-28T01:06:42.579Z,20.04
2023-02-28T01:09:28.617Z,19.61
2023-02-28T01:12:14.624Z,19.91
2023-02-28T01:15:00.595Z,20.79
2023-02-28T01:17:46.349Z,19.79
2023-02-28T01:20:32.146Z,19.94
2023-02-28T01:23:18.110Z,20.23
2023-02-28T01:26:04.056Z,19.93
2023-02-28T01:28:49.957Z,19.99
2023-02-28T01:31:35.947Z,20.47
2023-02-28T01:34:21.857Z,19.96
2023-02-28T01:37:07.802Z,20.13
2023-02-28T01:39:53.697Z,19.99
2023-02-28T01:42:39.632Z,20.81
2023-02-28T01:45:25.578Z,20.22
2023-02-28T01:48:11.570Z,21.16
2023-02-28T01:50:57.563Z,20.09
2023-02-28T01:53:43.295Z,20.22
2023-02-28T01:56:29.193Z,20.56
2023-02-28T01:59:15.192Z,20.92
2023-02-28T02:02:01.050Z,20.04
2023-02-28T02:04:47.180Z,20.71
2023-02-28T02:07:33.129Z,20.79
2023-02-28T02:10:18.982Z,21.20
2023-02-28T02:13:05.053Z,21.20
2023-02-28T02:15:50.946Z,21.05
2023-02-28T02:18:36.735Z,21.23
2023-02-28T02:21:22.787Z,20.94
2023-02-28T02:24:08.555Z,21.17
2023-02-28T02:26:54.658Z,21.89
2023-02-28T02:29:40.565Z,21.11
2023-02-28T02:32:26.407Z,21.27
2023-02-28T02:35:12.415Z,21.26
2023-02-28T02:37:58.277Z,21.55
2023-02-28T02:40:44.201Z,20.83
2023-02-28T02:43:30.125Z,21.08
2023-02-28T02:46:15.947Z,21.28
2023-02-28T02:49:01.842Z,21.01
2023-02-28T02:51:47.764Z,21.78
2023-02-28T02:54:33.588Z,22.17
2023-02-28T02:57:19.727Z,22.72
2023-02-28T03:00:05.607Z,22.20
2023-02-28T03:02:53.586Z,22.74
2023-02-28T03:05:39.478Z,22.80
2023-02-28T03:08:25.225Z,22.31
2023-02-28T03:11:11.038Z,22.57
2023-02-28T03:13:57.048Z,22.66
2023-02-28T03:16:42.871Z,22.57
2023-02-28T03:19:28.822Z,22.78
2023-02-28T03:22:14.566Z,22.45
2023-02-28T03:25:00.469Z,22.41
2023-02-28T03:27:46.483Z,22.99
2023-02-28T03:30:32.367Z,22.12
2023-02-28T03:33:18.231Z,23.25
2023-02-28T03:36:04.064Z,22.57
2023-02-28T03:38:50.051Z,22.34
2023-02-28T03:41:36.142Z,23.22
2023-02-28T03:44:21.924Z,22.28
2023-02-28T03:47:07.834Z,22.97
2023-02-28T03:49:53.654Z,22.88
2023-02-28T03:52:39.423Z,22.68
2023-02-28T03:55:25.381Z,23.35
2023-02-28T03:58:11.339Z,23.13
2023-02-28T04:00:57.181Z,22.30
2023-02-28T04:03:43.220Z,22.94
2023-02-28T04:06:29.137Z,22.72
2023-02-28T04:09:15.126Z,22.34
2023-02-28T04:12:00.937Z,23.37
2023-02-28T04:14:46.901Z,23.20
2023-02-28T04:17:32.905Z,22.16
2023-02-28T04:20:18.717Z,22.99
2023-02-28T04:23:04.702Z,22.84
2023-02-28T04:25:50.812Z,21.65
2023-02-28T04:28:36.674Z,21.85
2023-02-28T04:31:22.598Z,22.11
2023-02-28T04:34:08.491Z,23.43
2023-02-28T04:37:10.118Z,22.44
2023-02-28T04:39:58.156Z,22.64
2023-02-28T04:42:44.063Z,22.99
2023-02-28T04:45:29.895Z,22.17
2023-02-28T04:48:15.802Z,22.94
2023-02-28T04:51:01.697Z,22.73
2023-02-28T04:53:47.686Z,22.65
2023-02-28T04:56:33.610Z,22.23
2023-02-28T04:59:19.412Z,23.24
2023-02-28T05:02:05.289Z,22.90
2023-02-28T05:04:51.177Z,22.49
2023-02-28T05:07:37.099Z,23.01
2023-02-28T05:10:23.127Z,23.36
2023-02-28T05:13:09.066Z,22.65
2023-02-28T05:15:55.066Z,22.62
2023-02-28T05:18:41.032Z,22.62
2023-02-28T05:21:27.258Z,22.94
2023-02-28T05:24:13.718Z,23.52
2023-02-28T05:26:59.762Z,23.86
2023-02-28T05:29:45.734Z,23.49
2023-02-28T05:32:31.807Z,24.40
2023-02-28T05:35:17.867Z,23.63
2023-02-28T05:38:03.893Z,23.73
2023-02-28T05:40:49.759Z,22.87
2023-02-28T05:43:35.593Z,23.76
2023-02-28T05:46:21.537Z,23.87
2023-02-28T05:49:07.372Z,23.42
2023-02-28T05:51:53.275Z,23.72
2023-02-28T05:54:39.319Z,24.36
2023-02-28T05:57:25.115Z,23.49
2023-02-28T06:00:10.850Z,24.26
2023-02-28T06:02:56.733Z,23.71
2023-02-28T06:05:42.697Z,24.93
2023-02-28T06:08:28.724Z,24.76
2023-02-28T06:11:14.587Z,24.01
2023-02-28T06:14:00.564Z,24.74
2023-02-28T06:16:46.653Z,24.87
2023-02-28T06:19:34.514Z,25.85
2023-02-28T06:22:20.406Z,25.58
2023-02-28T06:25:06.273Z,24.78
2023-02-28T06:27:52.108Z,24.97
2023-02-28T06:30:38.125Z,23.97
2023-02-28T06:33:23.888Z,24.54
2023-02-28T06:36:09.829Z,25.35
2023-02-28T06:38:55.880Z,25.55
2023-02-28T06:41:54.045Z,25.01
2023-02-28T06:44:41.728Z,24.62
2023-02-28T06:47:27.418Z,24.73
2023-02-28T06:50:13.514Z,24.73
2023-02-28T06:52:59.499Z,25.88
2023-02-28T06:55:45.337Z,24.77
2023-02-28T06:58:31.213Z,24.76
2023-02-28T07:01:17.195Z,25.82
2023-02-28T07:04:03.201Z,25.06
2023-02-28T07:06:49.085Z,25.85
2023-02-28T07:09:35.041Z,25.07
2023-02-28T07:12:20.803Z,25.38
2023-02-28T07:15:06.761Z,24.89
2023-02-28T07:17:52.559Z,24.89
2023-02-28T07:20:38.435Z,25.82
2023-02-28T07:23:24.214Z,25.30
2023-02-28T07:26:10.043Z,25.89
2023-02-28T07:28:55.907Z,25.37
2023-02-28T07:31:41.816Z,25.09
2023-02-28T07:34:27.998Z,25.94
2023-02-28T07:37:13.925Z,25.36
2023-02-28T07:39:59.771Z,25.63
2023-02-28T07:42:45.856Z,25.96
2023-02-28T07:45:31.687Z,25.11
2023-02-28T07:48:17.619Z,26.72
2023-02-28T07:51:03.561Z,25.55
2023-02-28T07:53:51.391Z,25.43
2023-02-28T07:56:37.357Z,25.37
2023-02-28T07:59:23.413Z,25.40
2023-02-28T08:02:09.083Z,26.09
2023-02-28T08:04:55.024Z,25.60
2023-02-28T08:07:40.932Z,25.08
2023-02-28T08:10:26.850Z,24.94
2023-02-28T08:13:12.859Z,25.06
2023-02-28T08:15:58.701Z,26.03
2023-02-28T08:18:44.717Z,24.67
2023-02-28T08:21:30.954Z,25.46
2023-02-28T08:24:17.065Z,25.62
2023-02-28T08:27:02.975Z,25.12
2023-02-28T08:29:48.841Z,25.01
2023-02-28T08:32:34.809Z,25.39
2023-02-28T08:35:21.108Z,25.03
2023-02-28T08:38:06.997Z,24.37
2023-02-28T08:40:52.804Z,25.68
2023-02-28T08:43:38.756Z,24.69
2023-02-28T08:46:24.661Z,25.75
2023-02-28T08:49:10.488Z,25.29
2023-02-28T08:51:56.362Z,26.27
2023-02-28T08:54:42.330Z,26.48
2023-02-28T08:57:28.349Z,25.01
2023-02-28T09:00:14.156Z,25.77
2023-02-28T09:02:59.998Z,25.31
2023-02-28T09:05:46.043Z,24.54
2023-02-28T09:08:31.952Z,24.19
2023-02-28T09:11:17.903Z,25.84
2023-02-28T09:14:03.793Z,26.48
2023-02-28T09:16:49.781Z,26.59
2023-02-28T09:19:35.840Z,26.43
2023-02-28T09:22:21.743Z,26.70
2023-02-28T09:25:07.730Z,27.00
2023-02-28T09:27:53.673Z,26.82
2023-02-28T09:30:39.615Z,27.22
2023-02-28T09:33:27.617Z,25.62
2023-02-28T09:36:13.674Z,26.18
2023-02-28T09:38:59.482Z,26.31
2023-02-28T09:41:45.434Z,26.43
2023-02-28T09:44:31.390Z,26.03
2023-02-28T09:47:17.361Z,26.71
2023-02-28T09:50:03.238Z,26.19
2023-02-28T09:52:49.175Z,25.26
2023-02-28T09:55:41.492Z,25.96
2023-02-28T09:58:30.945Z,24.88
2023-02-28T10:01:16.907Z,25.43
2023-02-28T10:04:02.685Z,25.93
2023-02-28T10:06:48.584Z,25.64
2023-02-28T10:09:34.674Z,26.46
2023-02-28T10:12:20.610Z,26.23
2023-02-28T10:15:06.481Z,26.43
2023-02-28T10:17:55.550Z,26.26
2023-02-28T10:20:52.517Z,26.43
2023-02-28T10:23:38.449Z,26.64
2023-02-28T10:26:24.335Z,26.32
2023-02-28T10:29:10.079Z,25.87
2023-02-28T10:31:55.848Z,25.39
2023-02-28T10:34:41.851Z,26.79
2023-02-28T10:37:27.803Z,26.22
2023-02-28T10:40:13.640Z,26.18
2023-02-28T10:42:59.820Z,25.42
2023-02-28T10:45:46.134Z,24.91
2023-02-28T10:48:31.886Z,25.23
2023-02-28T10:51:17.814Z,25.74
2023-02-28T10:54:03.777Z,25.39
2023-02-28T10:56:49.628Z,25.79
2023-02-28T10:59:35.615Z,25.14
2023-02-28T11:02:21.484Z,24.79
2023-02-28T11:05:07.526Z,25.89
2023-02-28T11:07:53.742Z,26.42
2023-02-28T11:10:39.902Z,25.62
2023-02-28T11:13:25.876Z,25.71
2023-02-28T11:16:11.739Z,25.28
2023-02-28T11:18:57.627Z,24.96
2023-02-28T11:21:43.635Z,25.56
2023-02-28T11:24:29.450Z,24.91
2023-02-28T11:27:15.388Z,25.53
2023-02-28T11:30:01.437Z,26.65
2023-02-28T11:32:47.737Z,26.06
2023-02-28T11:35:33.781Z,24.91
2023-02-28T11:38:19.765Z,26.13
2023-02-28T11:41:05.604Z,25.82
2023-02-28T11:43:51.643Z,26.42
2023-02-28T11:46:37.421Z,26.14
2023-02-28T11:49:23.480Z,25.64
2023-02-28T11:52:11.687Z,26.04
2023-02-28T11:54:57.508Z,26.53
2023-02-28T11:57:43.419Z,26.21
2023-02-28T12:00:29.262Z,25.71
2023-02-28T12:03:15.133Z,26.53
2023-02-28T12:06:01.227Z,25.54
2023-02-28T12:08:46.988Z,26.46
2023-02-28T12:11:33.067Z,26.34
2023-02-28T12:14:19.195Z,25.81
2023-02-28T12:17:04.939Z,25.84
2023-02-28T12:19:50.999Z,26.02
2023-02-28T12:22:36.918Z,25.66
2023-02-28T12:25:22.752Z,26.19
2023-02-28T12:28:08.706Z,25.97
2023-02-28T12:30:54.463Z,25.94
2023-02-28T12:33:40.408Z,25.46
2023-02-28T12:36:26.239Z,26.40
2023-02-28T12:39:12.208Z,25.76
2023-02-28T12:41:58.137Z,25.20
2023-02-28T12:44:44.049Z,25.47
2023-02-28T12:47:29.967Z,25.65
2023-02-28T12:50:15.762Z,25.28
2023-02-28T12:53:01.480Z,24.27
2023-02-28T12:55:47.529Z,25.42
2023-02-28T12:58:33.384Z,25.84
2023-02-28T13:01:19.228Z,25.99
2023-02-28T13:04:05.298Z,25.57
2023-02-28T13:06:51.342Z,25.61
2023-02-28T13:09:37.302Z,27.10
2023-02-28T13:12:23.228Z,26.01
2023-02-28T13:15:09.056Z,26.00
2023-02-28T13:17:55.055Z,26.79
2023-02-28T13:20:41.306Z,26.31
2023-02-28T13:23:27.064Z,26.67
2023-02-28T13:26:12.980Z,25.98
2023-02-28T13:28:58.946Z,27.27
2023-02-28T13:31:44.962Z,27.84
2023-02-28T13:34:30.914Z,27.65
2023-02-28T13:37:18.814Z,26.73
2023-02-28T13:40:04.907Z,26.04
2023-02-28T13:42:51.022Z,25.96
2023-02-28T13:45:36.971Z,25.92
2023-02-28T13:48:22.899Z,27.42
2023-02-28T13:51:08.830Z,26.60
2023-02-28T13:53:54.735Z,26.81
2023-02-28T13:56:40.629Z,26.78
2023-02-28T13:59:26.457Z,27.16
2023-02-28T14:02:12.255Z,28.42
2023-02-28T14:04:58.243Z,27.06
2023-02-28T14:07:44.128Z,26.78
2023-02-28T14:10:30.032Z,26.67
2023-02-28T14:13:16.160Z,28.71
2023-02-28T14:16:02.075Z,28.31
2023-02-28T14:18:48.243Z,26.83
2023-02-28T14:21:34.054Z,27.74
2023-02-28T14:24:20.033Z,26.99
2023-02-28T14:27:05.895Z,26.90
2023-02-28T14:29:51.808Z,27.11
2023-02-28T14:32:37.843Z,26.32
2023-02-28T14:35:23.579Z,28.05
2023-02-28T14:38:09.497Z,26.82
2023-02-28T14:40:55.420Z,27.17
2023-02-28T14:43:41.220Z,26.45
2023-02-28T14:46:27.250Z,29.59
2023-02-28T14:49:13.254Z,30.55
2023-02-28T14:51:59.086Z,28.26
2023-02-28T14:54:45.024Z,28.60
2023-02-28T14:57:30.754Z,28.64
2023-02-28T15:00:17.087Z,57.74
2023-02-28T15:03:02.958Z,30.14
2023-02-28T15:05:48.792Z,29.01
2023-02-28T15:08:34.863Z,27.98
2023-02-28T15:11:20.849Z,27.93
2023-02-28T15:14:06.921Z,25.87
2023-02-28T15:16:52.945Z,27.73
2023-02-28T15:19:38.842Z,26.47
2023-02-28T15:22:26.252Z,27.05
2023-02-28T15:25:12.185Z,26.74
2023-02-28T15:27:57.921Z,26.54
2023-02-28T15:30:43.991Z,27.46
2023-02-28T15:33:29.772Z,27.11
2023-02-28T15:36:15.729Z,26.65
2023-02-28T15:39:14.456Z,25.81
2023-02-28T15:42:01.624Z,26.95
2023-02-28T15:44:47.616Z,25.96
2023-02-28T15:47:33.535Z,25.37
2023-02-28T15:50:19.389Z,25.22
2023-02-28T15:53:06.442Z,24.87
2023-02-28T15:55:52.332Z,25.78
2023-02-28T15:58:38.388Z,25.04
2023-02-28T16:01:24.353Z,25.93
2023-02-28T16:04:10.381Z,27.47
2023-02-28T16:06:56.314Z,35.22
2023-02-28T16:09:42.311Z,27.62
2023-02-28T16:12:28.166Z,26.64
2023-02-28T16:15:14.094Z,25.59
2023-02-28T16:18:00.048Z,25.70
2023-02-28T16:20:45.978Z,25.12
2023-02-28T16:23:31.937Z,25.49
2023-02-28T16:26:20.472Z,25.36
2023-02-28T16:29:06.255Z,25.37
2023-02-28T16:31:52.370Z,26.60
2023-02-28T16:34:38.175Z,25.78
2023-02-28T16:37:24.055Z,25.26
2023-02-28T16:40:09.955Z,24.32
2023-02-28T16:42:55.893Z,26.62
2023-02-28T16:45:42.361Z,26.49
2023-02-28T16:48:28.315Z,25.17
2023-02-28T16:51:14.116Z,26.11
2023-02-28T16:54:00.197Z,25.61
2023-02-28T16:56:46.104Z,24.96
2023-02-28T16:59:32.134Z,26.07
2023-02-28T17:02:18.275Z,26.39
2023-02-28T17:05:06.566Z,25.89
2023-02-28T17:07:52.533Z,25.43
2023-02-28T17:10:38.437Z,25.49
2023-02-28T17:13:24.269Z,25.77
2023-02-28T17:16:10.335Z,26.15
2023-02-28T17:18:56.610Z,28.55
2023-02-28T17:21:42.596Z,27.23
2023-02-28T17:24:31.156Z,28.01
2023-02-28T17:27:17.860Z,27.30
2023-02-28T17:30:03.863Z,26.84
2023-02-28T17:32:49.941Z,27.82
2023-02-28T17:35:36.000Z,27.00
2023-02-28T17:38:21.868Z,26.82
2023-02-28T17:41:07.833Z,26.36
2023-02-28T17:43:53.764Z,28.14
2023-02-28T17:46:39.785Z,26.93
2023-02-28T17:49:25.806Z,28.10
2023-02-28T17:52:11.749Z,27.98
2023-02-28T17:54:57.650Z,28.17
2023-02-28T17:57:43.557Z,27.56
2023-02-28T18:00:29.561Z,28.98
2023-02-28T18:03:23.070Z,28.39
2023-02-28T18:06:09.197Z,28.28
2023-02-28T18:08:55.218Z,28.10
2023-02-28T18:11:41.187Z,28.65
2023-02-28T18:14:27.107Z,28.72
2023-02-28T18:17:12.882Z,28.04
2023-02-28T18:19:58.886Z,30.23
2023-02-28T18:22:44.897Z,30.20
2023-02-28T18:25:30.771Z,29.34
2023-02-28T18:28:16.707Z,29.76
2023-02-28T18:31:02.642Z,30.87
2023-02-28T18:33:48.762Z,30.88
2023-02-28T18:36:34.642Z,31.75
2023-02-28T18:39:20.428Z,29.44
2023-02-28T18:42:06.344Z,30.53
2023-02-28T18:44:52.268Z,31.01
2023-02-28T18:47:38.177Z,30.30
2023-02-28T18:50:24.249Z,30.94
2023-02-28T18:53:10.114Z,31.85
2023-02-28T18:55:55.996Z,32.48
2023-02-28T18:58:42.132Z,32.77
2023-02-28T19:01:28.052Z,32.99
2023-02-28T19:04:14.120Z,32.85
2023-02-28T19:07:00.108Z,32.70
2023-02-28T19:09:46.066Z,33.49
2023-02-28T19:12:32.047Z,33.37
2023-02-28T19:15:17.796Z,33.47
2023-02-28T19:18:03.834Z,32.90
2023-02-28T19:20:49.776Z,32.97
2023-02-28T19:23:35.748Z,34.16
2023-02-28T19:26:21.840Z,33.38
2023-02-28T19:29:07.756Z,34.89
2023-02-28T19:31:53.782Z,33.81
2023-02-28T19:34:40.116Z,34.54
2023-02-28T19:37:26.079Z,33.79
2023-02-28T19:40:12.116Z,34.00
2023-02-28T19:42:58.097Z,34.60
2023-02-28T19:45:44.037Z,35.11
2023-02-28T19:48:29.930Z,35.43
2023-02-28T19:54:06.448Z,35.41
2023-02-28T19:56:52.464Z,35.56
2023-02-28T19:59:40.232Z,35.68
2023-02-28T20:02:26.386Z,35.84
2023-02-28T20:05:12.229Z,36.70
2023-02-28T20:07:58.142Z,36.50
2023-02-28T20:10:44.006Z,36.38
2023-02-28T20:13:30.052Z,36.05
2023-02-28T20:16:16.048Z,37.19
2023-02-28T20:19:02.095Z,37.13
2023-02-28T20:21:48.047Z,35.78
2023-02-28T20:24:33.851Z,37.47
2023-02-28T20:27:19.808Z,36.82
2023-02-28T20:30:05.778Z,37.59
2023-02-28T20:32:51.665Z,38.31
2023-02-28T20:35:37.733Z,38.86
2023-02-28T20:38:23.647Z,38.48
2023-02-28T20:41:09.611Z,38.32
2023-02-28T20:43:55.624Z,38.10
2023-02-28T20:46:41.811Z,38.54
2023-02-28T20:49:27.803Z,37.32
2023-02-28T20:52:13.884Z,37.46
2023-02-28T20:54:59.849Z,37.65
2023-02-28T20:57:45.871Z,38.68
2023-02-28T21:00:31.771Z,39.50
2023-02-28T21:03:17.725Z,37.63
2023-02-28T21:06:03.622Z,38.89
2023-02-28T21:08:49.484Z,39.23
2023-02-28T21:11:35.537Z,39.37
2023-02-28T21:14:21.615Z,38.81
2023-02-28T21:17:07.583Z,39.03
2023-02-28T21:19:53.631Z,39.81
2023-02-28T21:22:39.569Z,38.56
2023-02-28T21:25:25.436Z,39.56
2023-02-28T21:28:11.562Z,38.03
2023-02-28T21:30:59.529Z,38.83
2023-02-28T21:33:45.486Z,38.88
2023-02-28T21:36:31.697Z,39.71
2023-02-28T21:39:17.879Z,39.18
2023-02-28T21:42:04.412Z,38.45
2023-02-28T21:44:50.340Z,38.83
2023-02-28T21:47:36.306Z,39.70
2023-02-28T21:50:22.258Z,38.68
2023-02-28T21:53:08.111Z,40.57
2023-02-28T21:55:54.088Z,39.81
2023-02-28T21:58:40.024Z,39.51
2023-02-28T22:01:25.922Z,39.75
2023-02-28T22:04:11.903Z,40.10
2023-02-28T22:06:57.986Z,40.74
2023-02-28T22:09:43.880Z,39.54
2023-02-28T22:12:29.913Z,39.07
2023-02-28T22:15:15.851Z,39.47
2023-02-28T22:18:01.930Z,39.78
2023-02-28T22:20:47.874Z,40.01
2023-02-28T22:23:33.812Z,40.13
2023-02-28T22:26:19.840Z,39.22
2023-02-28T22:29:05.853Z,39.60
2023-02-28T22:31:51.792Z,39.27
2023-02-28T22:34:37.822Z,38.55
2023-02-28T22:37:23.928Z,38.78
2023-02-28T22:40:09.795Z,39.22
2023-02-28T22:42:55.798Z,39.85
2023-02-28T22:45:41.692Z,40.22
2023-02-28T22:48:27.620Z,39.60
2023-02-28T22:51:13.596Z,39.53
2023-02-28T22:53:59.428Z,40.10
2023-02-28T22:56:45.374Z,39.72
2023-02-28T22:59:31.180Z,40.50
2023-02-28T23:02:17.148Z,39.59
2023-02-28T23:05:03.104Z,39.04
2023-02-28T23:07:49.106Z,40.87
2023-02-28T23:10:35.100Z,39.84
2023-02-28T23:13:20.982Z,39.50
2023-02-28T23:16:06.799Z,40.14
2023-02-28T23:18:52.776Z,40.10
2023-02-28T23:21:38.790Z,41.60
2023-02-28T23:24:26.753Z,38.87
2023-02-28T23:27:12.679Z,41.03
2023-02-28T23:29:58.627Z,42.10
2023-02-28T23:32:44.567Z,40.62
2023-02-28T23:35:30.754Z,41.49
2023-02-28T23:38:16.496Z,41.81
2023-02-28T23:41:02.437Z,41.20
2023-02-28T23:43:48.280Z,42.03
2023-02-28T23:46:34.742Z,42.27
2023-02-28T23:49:20.592Z,42.44
2023-02-28T23:52:06.408Z,40.71
2023-02-28T23:54:52.343Z,40.83
2023-02-28T23:57:38.295Z,42.86
